San Leandro, California
Current Conditions -  °F | °C
As of 1:53 AM on Monday 20 Oct 2014 (Local Time) from KOAK Reporting Station
Overcast Overcast  
Wind Chill: 64°   Ceiling: 1800
Heat Index: 64°   Visibility: 10mi
Dew Point: 56°   Wind: 6mph
Humidity: 75%   Direction: 250°WSW
Pressure: 29.92"   Gusts: NA
Location:  37.73°N, 122.15°W
Report Text: KOAK 200853Z 25005KT 10SM OVC018 18/13 A2992 RMK AO2 SLP131 T01780133 53003
Loading
Personal Weather Stations






























Interactive Weather Map
Tropical Storm Tracking
New forecast layout! Learn more

10-Day Weather Forecast

Advertisements
Track Severe Weather on mobile